Time;durP1;ratioP1;P1;durP2;ratioP2;P2;SDS_P1;SDS_P2;PMS_P1;PMS_P2;Temp;Humidity;BMP_temperature;BMP_pressure;BME280_temperature;BME280_humidity;BME280_pressure;Samples;Min_cycle;Max_cycle;Signal;HPM_P1;HPM_P2
2021/06/28 00:01:55;;;;;;;9.00;7.47;;;17.70;99.90;;;;;;4910635;29;20079;-71
2021/06/28 00:04:22;;;;;;;9.07;6.63;;;17.60;99.90;;;;;;4910019;29;20079;-70
2021/06/28 00:06:47;;;;;;;9.57;7.45;;;17.60;99.90;;;;;;4910003;29;20044;-71
2021/06/28 00:09:13;;;;;;;8.60;7.70;;;17.70;99.90;;;;;;4909615;29;20079;-70
2021/06/28 00:11:39;;;;;;;7.95;7.05;;;17.60;99.90;;;;;;4909879;29;20044;-70
2021/06/28 00:14:05;;;;;;;9.70;7.38;;;17.60;99.90;;;;;;4909781;29;20068;-71
2021/06/28 00:16:31;;;;;;;9.05;7.75;;;17.70;99.90;;;;;;4910422;29;20076;-70
2021/06/28 00:19:00;;;;;;;9.05;7.80;;;17.70;99.90;;;;;;4910115;29;20066;-71
2021/06/28 00:21:26;;;;;;;8.27;6.65;;;17.60;99.90;;;;;;4910187;29;20065;-70
2021/06/28 00:23:51;;;;;;;11.63;7.38;;;17.60;99.90;;;;;;4910443;29;20053;-70
2021/06/28 00:26:17;;;;;;;9.73;7.88;;;17.50;99.90;;;;;;4921631;29;20056;-70
2021/06/28 00:28:43;;;;;;;10.13;7.15;;;17.50;99.90;;;;;;4903821;29;20045;-70
2021/06/28 00:31:09;;;;;;;8.40;6.53;;;17.50;99.90;;;;;;4910323;29;20053;-70
2021/06/28 00:33:35;;;;;;;8.15;7.07;;;17.40;99.90;;;;;;4910232;29;20128;-70
2021/06/28 00:36:01;;;;;;;9.05;7.00;;;17.40;99.90;;;;;;4909646;29;20051;-71
2021/06/28 00:38:27;;;;;;;9.40;6.93;;;17.40;99.90;;;;;;4904906;29;20522;-70
2021/06/28 00:40:53;;;;;;;8.88;6.95;;;17.40;99.90;;;;;;4903545;29;20044;-71
2021/06/28 00:43:18;;;;;;;8.25;6.75;;;17.40;99.90;;;;;;4910266;29;20048;-70
2021/06/28 00:45:44;;;;;;;8.98;6.55;;;17.30;99.90;;;;;;4910371;29;20052;-70
2021/06/28 00:48:13;;;;;;;8.32;6.75;;;17.30;99.90;;;;;;4909494;29;20128;-70
2021/06/28 00:50:42;;;;;;;8.60;6.95;;;17.30;99.90;;;;;;4909359;29;20112;-72
2021/06/28 00:53:12;;;;;;;11.05;6.88;;;17.20;99.90;;;;;;4909509;29;20044;-71
2021/06/28 00:55:39;;;;;;;8.90;7.05;;;17.10;99.90;;;;;;4912536;29;20044;-71
2021/06/28 00:58:05;;;;;;;10.07;7.13;;;17.00;99.90;;;;;;4912805;29;20052;-71
2021/06/28 01:00:32;;;;;;;8.10;6.20;;;16.90;99.90;;;;;;4913518;29;20052;-71
2021/06/28 01:02:58;;;;;;;7.53;6.28;;;16.90;99.90;;;;;;4912781;29;20047;-70
2021/06/28 01:05:30;;;;;;;10.65;6.38;;;16.90;99.90;;;;;;4911969;29;20052;-71
2021/06/28 01:07:56;;;;;;;8.45;5.63;;;16.90;99.90;;;;;;4913116;29;20041;-70
2021/06/28 01:10:22;;;;;;;10.00;6.85;;;16.90;99.90;;;;;;4912693;29;20083;-70
2021/06/28 01:12:49;;;;;;;7.47;6.05;;;16.90;99.90;;;;;;4912861;29;20052;-69
2021/06/28 01:15:16;;;;;;;8.77;6.95;;;16.90;99.90;;;;;;4912915;29;20053;-69
2021/06/28 01:17:43;;;;;;;8.85;5.68;;;16.90;99.90;;;;;;4912523;29;20108;-69
2021/06/28 01:20:14;;;;;;;7.75;6.65;;;16.90;99.90;;;;;;4912717;29;20053;-69
2021/06/28 01:22:43;;;;;;;9.05;6.82;;;16.90;99.90;;;;;;4911965;29;20041;-69
2021/06/28 01:25:15;;;;;;;7.55;6.63;;;16.90;99.90;;;;;;4912909;29;20048;-69
2021/06/28 01:27:42;;;;;;;9.35;6.82;;;16.80;99.90;;;;;;4912818;29;20096;-70
2021/06/28 01:30:12;;;;;;;7.63;6.72;;;16.80;99.90;;;;;;4912463;29;20076;-70
2021/06/28 01:32:40;;;;;;;8.93;6.53;;;16.90;99.90;;;;;;4912708;29;20044;-69
2021/06/28 01:35:07;;;;;;;7.28;6.40;;;16.90;99.90;;;;;;4912592;29;20044;-69
2021/06/28 01:37:33;;;;;;;7.90;6.22;;;17.00;99.90;;;;;;4912691;29;20477;-69
2021/06/28 01:40:04;;;;;;;8.30;6.63;;;16.90;99.90;;;;;;4912518;29;20056;-69
2021/06/28 01:42:32;;;;;;;8.77;7.25;;;16.90;99.90;;;;;;4912624;29;20093;-69
2021/06/28 01:44:58;;;;;;;8.50;7.15;;;16.90;99.90;;;;;;4912406;29;20057;-69
2021/06/28 01:47:25;;;;;;;9.38;7.15;;;16.90;99.90;;;;;;4912796;29;20052;-69
2021/06/28 01:49:51;;;;;;;10.02;7.32;;;16.90;99.90;;;;;;4912334;29;20100;-70
2021/06/28 01:52:18;;;;;;;8.80;6.93;;;16.80;99.90;;;;;;4912479;29;20053;-70
2021/06/28 01:54:44;;;;;;;7.93;7.05;;;16.80;99.90;;;;;;4908084;29;20115;-69
2021/06/28 01:57:10;;;;;;;11.23;7.20;;;16.80;99.90;;;;;;4912643;29;20055;-69
2021/06/28 01:59:37;;;;;;;10.05;7.38;;;16.80;99.90;;;;;;4911513;29;20067;-69
2021/06/28 02:02:05;;;;;;;10.23;7.88;;;16.70;99.90;;;;;;4899785;29;20083;-69
2021/06/28 02:04:31;;;;;;;8.23;7.32;;;16.80;99.90;;;;;;4911870;29;20127;-69
2021/06/28 02:06:59;;;;;;;10.40;7.93;;;16.80;99.90;;;;;;4911686;29;20071;-68
2021/06/28 02:09:28;;;;;;;10.30;8.13;;;16.80;99.90;;;;;;4911657;29;20057;-68
2021/06/28 02:11:54;;;;;;;10.07;7.40;;;16.80;99.90;;;;;;4911853;29;20060;-68
2021/06/28 02:14:20;;;;;;;9.10;7.07;;;16.80;99.90;;;;;;4912487;29;20049;-68
2021/06/28 02:16:48;;;;;;;9.88;7.72;;;16.80;99.90;;;;;;4911170;29;20048;-68
2021/06/28 02:19:15;;;;;;;10.38;7.78;;;16.80;99.90;;;;;;4912396;29;20044;-68
2021/06/28 02:21:43;;;;;;;8.65;7.22;;;16.80;99.90;;;;;;4911866;29;20056;-68
2021/06/28 02:24:09;;;;;;;9.38;7.18;;;16.80;99.90;;;;;;4912414;29;20380;-69
2021/06/28 02:26:36;;;;;;;11.95;7.13;;;16.80;99.90;;;;;;4912364;29;20382;-68
2021/06/28 02:29:03;;;;;;;8.45;6.93;;;16.80;99.90;;;;;;4911662;29;20056;-68
2021/06/28 02:31:29;;;;;;;10.77;7.57;;;16.80;99.90;;;;;;4911611;29;20056;-68
2021/06/28 02:33:55;;;;;;;9.68;7.00;;;16.80;99.90;;;;;;4911891;29;20127;-68
2021/06/28 02:36:23;;;;;;;9.30;7.38;;;16.80;99.90;;;;;;4911929;29;20045;-68
2021/06/28 02:38:50;;;;;;;8.70;7.80;;;16.70;99.90;;;;;;4911285;29;20048;-68
2021/06/28 02:41:18;;;;;;;11.68;7.72;;;16.70;99.90;;;;;;4911258;29;20048;-68
2021/06/28 02:43:44;;;;;;;8.75;6.80;;;16.70;99.90;;;;;;4910885;29;20056;-68
2021/06/28 02:46:11;;;;;;;11.27;7.10;;;16.70;99.90;;;;;;4912022;29;20054;-69
2021/06/28 02:48:37;;;;;;;10.07;7.22;;;16.70;99.90;;;;;;4911291;29;20398;-68
2021/06/28 02:51:04;;;;;;;7.93;6.38;;;16.70;99.90;;;;;;4922481;29;20080;-68
2021/06/28 02:53:30;;;;;;;10.63;6.78;;;16.70;99.90;;;;;;4908753;29;20052;-69
2021/06/28 02:56:12;;;;;;;7.75;6.65;;;16.70;99.90;;;;;;4905552;29;20052;-68
2021/06/28 02:58:44;;;;;;;10.13;7.35;;;16.60;99.90;;;;;;4911244;29;20044;-68
2021/06/28 03:01:12;;;;;;;10.38;7.55;;;16.70;99.90;;;;;;4911105;29;20174;-68
2021/06/28 03:03:38;;;;;;;8.63;7.03;;;16.60;99.90;;;;;;4910994;29;20181;-68
2021/06/28 03:06:04;;;;;;;9.43;7.38;;;16.60;99.90;;;;;;4910997;29;20522;-68
2021/06/28 03:08:31;;;;;;;12.10;8.07;;;16.60;99.90;;;;;;4909890;29;20060;-68
2021/06/28 03:10:57;;;;;;;10.35;7.13;;;16.60;99.90;;;;;;4910993;29;20064;-68
2021/06/28 03:13:23;;;;;;;9.88;7.18;;;16.60;99.90;;;;;;4910643;29;20049;-68
2021/06/28 03:15:48;;;;;;;9.80;7.35;;;16.70;99.90;;;;;;4910896;29;20063;-68
2021/06/28 03:18:14;;;;;;;10.68;8.48;;;16.70;99.90;;;;;;4910274;29;20052;-68
2021/06/28 03:20:40;;;;;;;9.60;7.00;;;16.70;99.90;;;;;;4908985;29;20119;-69
2021/06/28 03:23:06;;;;;;;8.95;7.53;;;16.70;99.90;;;;;;4908955;29;20050;-69
2021/06/28 03:25:32;;;;;;;9.48;7.68;;;16.70;99.90;;;;;;4910717;29;20115;-69
2021/06/28 03:27:58;;;;;;;7.85;6.57;;;16.70;99.90;;;;;;4910427;29;20103;-68
2021/06/28 03:30:24;;;;;;;10.68;8.25;;;16.70;99.90;;;;;;4910220;29;20592;-68
2021/06/28 03:32:49;;;;;;;9.55;7.18;;;16.80;99.90;;;;;;4909261;29;20072;-68
2021/06/28 03:35:16;;;;;;;8.30;7.40;;;16.80;99.90;;;;;;4909760;29;20048;-68
2021/06/28 03:37:42;;;;;;;10.60;7.85;;;16.80;99.90;;;;;;4909775;29;20068;-68
2021/06/28 03:40:11;;;;;;;9.63;7.22;;;16.80;99.90;;;;;;4909779;29;20052;-68
2021/06/28 03:42:38;;;;;;;10.73;7.35;;;16.80;99.90;;;;;;4909760;29;20051;-68
2021/06/28 03:45:10;;;;;;;8.15;6.60;;;16.90;99.90;;;;;;4910178;29;20044;-68
2021/06/28 03:47:36;;;;;;;8.25;7.35;;;16.90;99.90;;;;;;4910398;29;20060;-68
2021/06/28 03:50:04;;;;;;;8.90;7.50;;;16.90;99.90;;;;;;4910366;29;20097;-69
2021/06/28 03:52:30;;;;;;;12.50;8.35;;;16.90;99.90;;;;;;4910145;29;20049;-68
2021/06/28 03:54:55;;;;;;;11.38;8.30;;;16.90;99.90;;;;;;4908981;29;20417;-68
2021/06/28 03:57:22;;;;;;;9.30;7.43;;;16.90;99.90;;;;;;4909534;29;20052;-69
2021/06/28 03:59:47;;;;;;;10.40;8.13;;;17.00;99.90;;;;;;4909599;29;20048;-68
2021/06/28 04:02:13;;;;;;;10.65;8.35;;;17.00;99.90;;;;;;4904634;29;20687;-68
2021/06/28 04:04:39;;;;;;;11.75;8.60;;;17.00;99.90;;;;;;4907523;29;20095;-69
2021/06/28 04:07:05;;;;;;;11.70;8.32;;;17.00;99.90;;;;;;4904561;29;20064;-69
2021/06/28 04:09:31;;;;;;;11.32;8.15;;;17.00;99.90;;;;;;4905795;29;20508;-68
2021/06/28 04:11:57;;;;;;;10.70;7.95;;;17.00;99.90;;;;;;4908935;29;20060;-68
2021/06/28 04:14:23;;;;;;;12.23;9.35;;;17.00;99.90;;;;;;4909841;29;20044;-69
2021/06/28 04:16:49;;;;;;;12.63;8.88;;;17.00;99.90;;;;;;4902311;29;20248;-68
2021/06/28 04:19:14;;;;;;;11.85;7.65;;;17.00;99.90;;;;;;4907509;29;20056;-69
2021/06/28 04:21:40;;;;;;;10.00;7.97;;;17.00;99.90;;;;;;4903133;29;20049;-68
2021/06/28 04:24:06;;;;;;;10.13;8.23;;;17.00;99.90;;;;;;4900922;29;20040;-69
2021/06/28 04:26:32;;;;;;;11.00;7.97;;;17.10;99.90;;;;;;4905046;29;20505;-69
2021/06/28 04:28:58;;;;;;;10.55;8.35;;;17.10;99.90;;;;;;4902651;29;20072;-68
2021/06/28 04:31:29;;;;;;;15.65;8.15;;;17.10;99.90;;;;;;4903371;29;20072;-68
2021/06/28 04:33:56;;;;;;;11.65;8.57;;;17.10;99.90;;;;;;4909572;29;20055;-67
2021/06/28 04:36:21;;;;;;;11.25;8.65;;;17.00;99.90;;;;;;4908628;29;20049;-66
2021/06/28 04:38:47;;;;;;;10.95;8.25;;;16.90;99.90;;;;;;4879798;29;20063;-65
2021/06/28 04:41:13;;;;;;;15.88;7.95;;;16.80;99.90;;;;;;4901269;29;20052;-66
2021/06/28 04:43:39;;;;;;;9.35;7.82;;;16.80;99.90;;;;;;4903375;29;20062;-65
2021/06/28 04:46:05;;;;;;;11.63;8.55;;;16.90;99.90;;;;;;4905831;29;20072;-65
2021/06/28 04:48:31;;;;;;;9.52;7.60;;;16.90;99.90;;;;;;4904640;29;20052;-65
2021/06/28 04:50:57;;;;;;;9.77;8.38;;;16.90;99.90;;;;;;4902242;29;20561;-64
2021/06/28 04:53:23;;;;;;;10.77;8.05;;;16.90;99.90;;;;;;4902604;29;20540;-64
2021/06/28 04:55:48;;;;;;;11.85;8.25;;;16.90;99.90;;;;;;4903577;29;20048;-66
2021/06/28 04:58:14;;;;;;;10.77;8.20;;;16.90;99.90;;;;;;4894183;29;20079;-65
2021/06/28 05:00:40;;;;;;;9.60;7.13;;;16.90;99.90;;;;;;4899810;29;20481;-65
2021/06/28 05:03:06;;;;;;;10.60;8.48;;;16.90;99.90;;;;;;4900864;29;20055;-64
2021/06/28 05:05:32;;;;;;;9.52;8.50;;;16.90;99.90;;;;;;4906661;29;20454;-64
2021/06/28 05:07:58;;;;;;;12.85;8.85;;;16.90;99.90;;;;;;4899951;29;20067;-65
2021/06/28 05:10:25;;;;;;;10.82;8.43;;;17.00;99.90;;;;;;4907452;29;20041;-65
2021/06/28 05:12:50;;;;;;;12.48;9.07;;;17.10;99.90;;;;;;4899650;29;20151;-64
2021/06/28 05:15:16;;;;;;;10.10;8.77;;;17.00;99.90;;;;;;4910859;29;20051;-64
2021/06/28 05:17:43;;;;;;;9.98;8.23;;;17.10;99.90;;;;;;4899684;29;20111;-66
2021/06/28 05:20:11;;;;;;;10.77;8.30;;;17.10;99.90;;;;;;4911697;29;20037;-66
2021/06/28 05:22:38;;;;;;;11.25;7.63;;;17.20;99.90;;;;;;4896381;29;20275;-66
2021/06/28 05:25:05;;;;;;;13.30;8.75;;;17.20;99.90;;;;;;4908758;29;20055;-66
2021/06/28 05:27:33;;;;;;;11.60;8.00;;;17.20;99.90;;;;;;4896428;29;20052;-65
2021/06/28 05:30:00;;;;;;;12.48;8.60;;;17.30;99.90;;;;;;4912480;29;20243;-65
2021/06/28 05:32:27;;;;;;;9.50;8.05;;;17.30;99.90;;;;;;4897215;29;20057;-66
2021/06/28 05:34:53;;;;;;;9.85;8.55;;;17.30;99.90;;;;;;4913106;29;20045;-66
2021/06/28 05:37:20;;;;;;;10.20;9.13;;;17.40;99.90;;;;;;4895373;29;20705;-66
2021/06/28 05:39:46;;;;;;;12.65;8.95;;;17.40;99.90;;;;;;4902404;29;20147;-67
2021/06/28 05:42:13;;;;;;;10.30;7.80;;;17.40;99.90;;;;;;4895871;29;20369;-67
2021/06/28 05:44:39;;;;;;;10.23;8.57;;;17.40;99.90;;;;;;4915665;29;20041;-67
2021/06/28 05:47:05;;;;;;;9.90;8.35;;;17.40;99.90;;;;;;4895140;29;20045;-67
2021/06/28 05:49:34;;;;;;;10.65;8.82;;;17.50;99.90;;;;;;4918718;29;20188;-67
2021/06/28 05:52:00;;;;;;;11.82;8.93;;;17.50;99.90;;;;;;4902174;29;20055;-66
2021/06/28 05:54:26;;;;;;;9.52;8.52;;;17.50;99.90;;;;;;4908182;29;20052;-66
2021/06/28 05:56:52;;;;;;;11.52;9.05;;;17.60;99.90;;;;;;4903090;29;20108;-66
2021/06/28 05:59:18;;;;;;;10.13;8.93;;;17.60;99.90;;;;;;4908394;29;20201;-66
2021/06/28 06:01:43;;;;;;;10.07;8.40;;;17.70;99.90;;;;;;4898442;29;20036;-66
2021/06/28 06:04:14;;;;;;;11.52;8.75;;;17.80;99.90;;;;;;4907891;29;20098;-66
2021/06/28 06:06:41;;;;;;;10.30;8.57;;;17.80;99.90;;;;;;4903694;29;20052;-67
2021/06/28 06:09:07;;;;;;;10.73;9.43;;;17.80;99.90;;;;;;4909133;29;20404;-65
2021/06/28 06:11:33;;;;;;;11.68;8.95;;;17.80;99.90;;;;;;4904419;29;20134;-66
2021/06/28 06:14:00;;;;;;;8.20;7.28;;;17.80;99.90;;;;;;4907927;29;20044;-66
2021/06/28 06:16:25;;;;;;;9.82;8.38;;;17.80;99.90;;;;;;4906107;29;20132;-66
2021/06/28 06:18:55;;;;;;;12.65;9.77;;;17.80;99.90;;;;;;4909350;29;20529;-66
2021/06/28 06:21:24;;;;;;;12.93;9.95;;;17.80;99.90;;;;;;4906647;29;20057;-66
2021/06/28 06:23:51;;;;;;;11.38;8.98;;;17.80;99.90;;;;;;4898380;29;20044;-66
2021/06/28 06:26:18;;;;;;;9.90;8.50;;;17.80;99.90;;;;;;4905679;29;20045;-66
2021/06/28 06:28:44;;;;;;;12.20;8.68;;;17.80;99.90;;;;;;4906155;29;20056;-66
2021/06/28 06:31:10;;;;;;;11.43;9.25;;;17.90;99.90;;;;;;4908410;29;20049;-66
2021/06/28 06:33:38;;;;;;;10.95;8.35;;;18.00;99.90;;;;;;4906551;29;20067;-66
2021/06/28 06:36:05;;;;;;;13.13;10.10;;;18.00;99.90;;;;;;4906781;29;20112;-66
2021/06/28 06:38:31;;;;;;;11.57;9.63;;;18.00;99.90;;;;;;4895193;29;20064;-66
2021/06/28 06:40:58;;;;;;;10.15;9.05;;;18.00;99.90;;;;;;4907400;29;20584;-66
2021/06/28 06:43:25;;;;;;;11.88;10.00;;;18.10;99.90;;;;;;4904390;29;20420;-66
2021/06/28 06:45:51;;;;;;;14.43;9.68;;;18.10;99.90;;;;;;4908210;29;20377;-67
2021/06/28 06:48:17;;;;;;;10.93;8.93;;;18.20;99.90;;;;;;4902573;29;20476;-65
2021/06/28 06:50:44;;;;;;;12.60;9.20;;;18.20;99.90;;;;;;4908638;29;20052;-65
2021/06/28 06:53:10;;;;;;;13.88;9.90;;;18.30;99.90;;;;;;4901653;29;20598;-65
2021/06/28 06:55:36;;;;;;;12.60;9.80;;;18.40;99.90;;;;;;4909514;29;20049;-65
2021/06/28 06:58:08;;;;;;;10.65;9.48;;;18.40;99.90;;;;;;4902105;29;20087;-65
2021/06/28 07:00:54;;;;;;;11.65;10.32;;;18.50;99.90;;;;;;4890733;29;20445;-65
2021/06/28 07:03:20;;;;;;;14.07;9.15;;;18.60;99.90;;;;;;4902324;29;20124;-66
2021/06/28 07:05:46;;;;;;;11.32;9.00;;;18.60;99.90;;;;;;4909903;29;20541;-65
2021/06/28 07:08:15;;;;;;;14.50;11.18;;;18.70;99.90;;;;;;4903340;29;20056;-66
2021/06/28 07:10:42;;;;;;;12.75;10.30;;;18.70;99.90;;;;;;4910999;29;20529;-66
2021/06/28 07:13:08;;;;;;;17.35;10.02;;;18.70;99.90;;;;;;4901867;29;20052;-66
2021/06/28 07:15:34;;;;;;;11.10;9.95;;;18.60;99.90;;;;;;4911086;29;20051;-66
2021/06/28 07:18:00;;;;;;;12.68;9.57;;;18.70;99.90;;;;;;4902015;29;20052;-66
2021/06/28 07:20:26;;;;;;;11.52;9.05;;;18.80;99.90;;;;;;4913214;29;20132;-66
2021/06/28 07:22:53;;;;;;;12.48;10.13;;;18.80;99.90;;;;;;4895842;29;20141;-66
2021/06/28 07:25:20;;;;;;;11.32;9.25;;;18.90;99.90;;;;;;4912027;29;20053;-66
2021/06/28 07:27:48;;;;;;;11.68;9.68;;;19.00;99.90;;;;;;4894152;29;20056;-66
2021/06/28 07:30:16;;;;;;;12.45;10.38;;;19.00;99.90;;;;;;4903607;29;20040;-66
2021/06/28 07:32:42;;;;;;;10.85;9.75;;;19.10;99.90;;;;;;4895495;29;20055;-66
2021/06/28 07:35:10;;;;;;;14.27;10.90;;;19.10;99.90;;;;;;4913107;29;20048;-66
2021/06/28 07:37:39;;;;;;;13.32;10.50;;;19.30;99.90;;;;;;4896148;29;20056;-66
2021/06/28 07:40:07;;;;;;;12.55;10.80;;;19.30;99.90;;;;;;4901231;29;20049;-66
2021/06/28 07:42:33;;;;;;;10.40;9.30;;;19.40;99.90;;;;;;4895990;29;20079;-66
2021/06/28 07:44:59;;;;;;;16.10;11.48;;;19.40;99.90;;;;;;4903374;29;20085;-66
2021/06/28 07:47:25;;;;;;;12.50;10.85;;;19.50;99.90;;;;;;4893978;29;20131;-66
2021/06/28 07:49:52;;;;;;;12.95;10.25;;;19.60;99.90;;;;;;4915654;29;20044;-66
2021/06/28 07:52:17;;;;;;;12.35;9.93;;;19.60;99.90;;;;;;4897528;29;20048;-68
2021/06/28 07:54:45;;;;;;;15.32;10.45;;;19.60;99.90;;;;;;4915932;29;20053;-67
2021/06/28 07:57:11;;;;;;;14.25;10.35;;;19.70;99.90;;;;;;4901940;29;20483;-67
2021/06/28 07:59:37;;;;;;;13.13;11.35;;;19.80;99.90;;;;;;4907635;29;20120;-67
2021/06/28 08:02:05;;;;;;;11.85;10.48;;;19.90;99.90;;;;;;4901531;29;20099;-67
2021/06/28 08:04:31;;;;;;;10.88;9.80;;;20.10;99.90;;;;;;4907635;29;20056;-67
2021/06/28 08:06:57;;;;;;;13.20;11.35;;;20.10;99.90;;;;;;4901044;29;20040;-67
2021/06/28 08:09:23;;;;;;;11.73;10.13;;;20.30;99.90;;;;;;4893803;29;20060;-67
2021/06/28 08:11:50;;;;;;;11.88;10.25;;;20.30;99.90;;;;;;4904125;29;20045;-67
2021/06/28 08:14:18;;;;;;;13.20;10.52;;;20.40;99.90;;;;;;4906026;29;20052;-67
2021/06/28 08:16:44;;;;;;;14.20;10.63;;;20.40;99.90;;;;;;4902640;29;20120;-67
2021/06/28 08:19:11;;;;;;;11.63;10.07;;;20.50;99.90;;;;;;4905864;29;20449;-67
2021/06/28 08:21:38;;;;;;;10.85;9.75;;;20.60;99.90;;;;;;4902876;29;20116;-67
2021/06/28 08:24:06;;;;;;;11.48;10.27;;;20.60;99.90;;;;;;4906294;29;20056;-67
2021/06/28 08:26:35;;;;;;;10.85;9.57;;;20.70;99.90;;;;;;4903620;29;20291;-66
2021/06/28 08:29:03;;;;;;;11.60;9.40;;;20.90;99.90;;;;;;4903879;29;20078;-66
2021/06/28 08:31:34;;;;;;;11.23;9.75;;;20.90;99.90;;;;;;4904255;29;20063;-66
2021/06/28 08:34:00;;;;;;;12.15;10.77;;;20.90;99.90;;;;;;4904222;29;20099;-66
2021/06/28 08:36:26;;;;;;;11.32;10.23;;;21.00;99.90;;;;;;4904630;29;20044;-66
2021/06/28 08:38:52;;;;;;;12.18;10.68;;;21.10;99.90;;;;;;4892628;29;20505;-66
2021/06/28 08:41:18;;;;;;;10.45;9.45;;;21.20;99.90;;;;;;4905470;29;20083;-66
2021/06/28 08:43:45;;;;;;;10.73;9.55;;;21.20;99.90;;;;;;4894160;29;20056;-66
2021/06/28 08:46:16;;;;;;;10.80;9.43;;;21.20;99.90;;;;;;4906309;29;20133;-66
2021/06/28 08:48:43;;;;;;;14.45;9.98;;;21.30;99.90;;;;;;4901785;29;20068;-67
2021/06/28 08:51:10;;;;;;;12.98;9.82;;;21.40;99.90;;;;;;4908634;29;20055;-66
2021/06/28 08:53:36;;;;;;;11.38;10.27;;;21.50;99.90;;;;;;4902455;29;20063;-66
2021/06/28 08:56:07;;;;;;;11.77;9.35;;;21.60;99.90;;;;;;4907451;29;20119;-67
2021/06/28 08:58:34;;;;;;;10.40;9.25;;;21.60;99.90;;;;;;4899881;29;20060;-67
2021/06/28 09:01:00;;;;;;;12.43;9.60;;;21.60;99.90;;;;;;4908489;29;20188;-67
2021/06/28 09:03:26;;;;;;;11.10;9.88;;;21.70;99.90;;;;;;4898927;29;20214;-67
2021/06/28 09:05:59;;;;;;;10.43;9.27;;;21.80;99.90;;;;;;4909107;29;20497;-66
2021/06/28 09:08:26;;;;;;;11.40;10.30;;;21.90;99.90;;;;;;4893838;29;20085;-66
2021/06/28 09:10:52;;;;;;;10.85;9.70;;;21.90;99.90;;;;;;4908917;29;20155;-66
2021/06/28 09:13:41;;;;;;;10.68;8.23;;;22.00;99.90;;;;;;4897828;29;20064;-66
2021/06/28 09:16:23;;;;;;;10.93;8.00;;;22.00;99.90;;;;;;4911240;29;20040;-66
2021/06/28 09:19:06;;;;;;;11.02;8.70;;;22.10;99.90;;;;;;4905306;29;20060;-66
2021/06/28 09:21:40;;;;;;;9.00;7.95;;;22.10;99.90;;;;;;4896124;29;20065;-66
2021/06/28 09:24:31;;;;;;;10.40;8.57;;;22.20;99.90;;;;;;4907022;29;20067;-66
2021/06/28 09:27:18;;;;;;;9.70;8.75;;;22.30;99.90;;;;;;4904566;29;20052;-66
2021/06/28 09:29:55;;;;;;;13.00;9.10;;;22.40;99.90;;;;;;4905054;29;20469;-66
2021/06/28 09:32:22;;;;;;;10.02;8.60;;;22.40;99.90;;;;;;4907223;29;20068;-66
2021/06/28 09:34:50;;;;;;;10.57;8.60;;;22.50;99.90;;;;;;4909778;29;20051;-64
2021/06/28 09:37:17;;;;;;;9.23;7.65;;;22.60;99.90;;;;;;4904270;29;20090;-65
2021/06/28 09:39:44;;;;;;;9.30;8.38;;;22.60;99.90;;;;;;4890654;29;20117;-65
2021/06/28 09:42:16;;;;;;;9.43;8.38;;;22.70;99.90;;;;;;4902400;29;20067;-65
2021/06/28 09:45:09;;;;;;;8.88;8.02;;;22.80;99.90;;;;;;4909518;29;20072;-65
2021/06/28 09:47:35;;;;;;;9.18;8.25;;;22.90;99.90;;;;;;4902296;29;20041;-66
2021/06/28 09:50:19;;;;;;;10.38;8.50;;;22.90;99.90;;;;;;4894917;29;20095;-65
2021/06/28 09:52:53;;;;;;;9.95;8.98;;;22.90;99.90;;;;;;4894615;29;20060;-65
2021/06/28 09:55:35;;;;;;;9.60;7.13;;;23.00;99.90;;;;;;4917881;29;20056;-65
2021/06/28 09:58:08;;;;;;;10.52;8.05;;;23.20;99.90;;;;;;4899183;29;20052;-65
2021/06/28 10:00:46;;;;;;;8.77;6.50;;;23.20;99.90;;;;;;4911662;29;20188;-65
2021/06/28 10:03:40;;;;;;;7.75;6.97;;;23.30;99.90;;;;;;4898605;29;20103;-64
2021/06/28 10:08:35;;;;;;;8.00;7.28;;;23.50;99.90;;;;;;4901204;29;20099;-65
2021/06/28 10:11:22;;;;;;;10.20;9.20;;;23.50;99.90;;;;;;4911754;29;20132;-65
2021/06/28 10:13:56;;;;;;;8.60;7.68;;;23.50;99.90;;;;;;4902860;29;20052;-64
2021/06/28 10:16:24;;;;;;;9.52;8.48;;;23.50;99.90;;;;;;4909170;29;20040;-65
2021/06/28 10:18:52;;;;;;;9.27;8.07;;;23.60;99.90;;;;;;4902970;29;20096;-66
2021/06/28 10:21:18;;;;;;;8.07;7.38;;;23.60;99.90;;;;;;4909861;29;20047;-66
2021/06/28 10:23:44;;;;;;;6.22;5.63;;;23.70;99.90;;;;;;4903709;29;20131;-66
2021/06/28 10:26:10;;;;;;;7.68;6.05;;;23.80;99.90;;;;;;4910753;29;20056;-66
2021/06/28 10:28:39;;;;;;;8.75;7.88;;;23.80;99.90;;;;;;4900511;29;20048;-66
2021/06/28 10:31:13;;;;;;;7.65;6.93;;;23.90;99.90;;;;;;4911319;29;20041;-66
2021/06/28 10:33:41;;;;;;;9.35;8.25;;;23.90;99.90;;;;;;4900991;29;20148;-65
2021/06/28 10:36:12;;;;;;;8.38;7.57;;;23.90;99.90;;;;;;4902104;29;20048;-65
2021/06/28 10:38:57;;;;;;;7.22;6.53;;;23.90;99.90;;;;;;4891381;29;20256;-66
2021/06/28 10:41:44;;;;;;;7.95;7.25;;;23.90;99.90;;;;;;4909372;29;20049;-65
2021/06/28 10:44:14;;;;;;;8.45;7.65;;;24.00;99.90;;;;;;4903708;29;20147;-65
2021/06/28 10:46:43;;;;;;;8.05;7.25;;;24.00;99.90;;;;;;4905151;29;20040;-65
2021/06/28 10:49:09;;;;;;;8.40;7.60;;;24.00;99.90;;;;;;4903564;29;20095;-65
2021/06/28 10:51:50;;;;;;;7.22;6.53;;;24.10;99.90;;;;;;4908490;29;20052;-65
2021/06/28 10:54:40;;;;;;;10.60;7.63;;;24.20;99.90;;;;;;4893196;29;20068;-65
2021/06/28 10:57:10;;;;;;;6.03;5.43;;;24.30;99.90;;;;;;4903794;29;20063;-65
2021/06/28 10:59:44;;;;;;;7.97;7.18;;;24.30;99.90;;;;;;4907740;29;20052;-65
2021/06/28 11:02:12;;;;;;;8.15;7.07;;;24.40;99.90;;;;;;4906490;29;20052;-65
2021/06/28 11:04:53;;;;;;;8.05;7.25;;;24.40;99.90;;;;;;4895903;29;20056;-66
2021/06/28 11:07:19;;;;;;;7.75;6.95;;;24.50;99.90;;;;;;4892044;29;20044;-66
2021/06/28 11:09:59;;;;;;;8.07;7.25;;;24.60;99.90;;;;;;4908415;29;20063;-66
2021/06/28 11:12:36;;;;;;;8.20;7.40;;;24.70;99.90;;;;;;4903100;29;20112;-65
2021/06/28 11:15:24;;;;;;;8.57;7.78;;;24.70;99.90;;;;;;4909780;29;20071;-66
2021/06/28 11:17:55;;;;;;;8.23;7.47;;;24.90;99.90;;;;;;4905232;29;20048;-66
2021/06/28 11:20:39;;;;;;;7.68;6.88;;;24.90;99.90;;;;;;4910555;29;20144;-66
2021/06/28 11:23:06;;;;;;;10.05;7.78;;;25.00;99.90;;;;;;4890700;29;20093;-66
2021/06/28 11:25:44;;;;;;;8.70;7.90;;;25.00;99.90;;;;;;4917250;29;20052;-66
2021/06/28 11:28:19;;;;;;;8.95;8.05;;;25.00;99.90;;;;;;4894965;29;20056;-66
2021/06/28 11:31:04;;;;;;;11.02;9.68;;;25.10;99.90;;;;;;4916931;29;20048;-66
2021/06/28 11:33:50;;;;;;;9.75;8.15;;;25.10;99.90;;;;;;4889384;29;20062;-66
2021/06/28 11:36:22;;;;;;;7.90;7.10;;;25.20;99.90;;;;;;4910381;29;20524;-65
2021/06/28 11:38:49;;;;;;;7.35;6.72;;;25.20;99.90;;;;;;4881969;29;20087;-66
2021/06/28 11:41:17;;;;;;;9.07;8.10;;;25.30;99.90;;;;;;4911173;29;20045;-65
2021/06/28 11:43:46;;;;;;;6.85;6.25;;;25.50;99.90;;;;;;4897946;29;20172;-65
2021/06/28 11:46:17;;;;;;;7.40;6.70;;;25.50;99.90;;;;;;4913880;29;20123;-65
2021/06/28 11:48:53;;;;;;;6.85;6.15;;;25.50;99.90;;;;;;4899722;29;20586;-65
2021/06/28 11:51:28;;;;;;;6.72;6.13;;;25.60;99.90;;;;;;4911074;29;20045;-66
2021/06/28 11:54:06;;;;;;;8.77;7.70;;;25.60;99.90;;;;;;4885435;29;20065;-66
2021/06/28 11:56:34;;;;;;;8.13;7.32;;;25.70;99.90;;;;;;4904961;29;20191;-66
2021/06/28 11:59:08;;;;;;;7.80;7.00;;;25.80;99.90;;;;;;4898879;29;20052;-66
2021/06/28 12:01:40;;;;;;;8.70;7.40;;;25.90;99.90;;;;;;4909676;29;20222;-67
2021/06/28 12:04:13;;;;;;;7.15;6.45;;;26.10;99.90;;;;;;4900742;29;20517;-67
2021/06/28 12:06:40;;;;;;;7.38;5.97;;;26.20;99.90;;;;;;4911703;29;20041;-67
2021/06/28 12:09:18;;;;;;;6.70;6.10;;;26.40;99.90;;;;;;4900876;29;20071;-67
2021/06/28 12:11:56;;;;;;;7.53;6.43;;;26.60;99.90;;;;;;4908542;29;20418;-66
2021/06/28 12:14:41;;;;;;;7.05;6.45;;;26.60;99.90;;;;;;4902295;29;20079;-66
2021/06/28 12:17:12;;;;;;;7.32;6.63;;;26.40;99.90;;;;;;4906392;29;20044;-66
2021/06/28 12:19:40;;;;;;;8.02;6.95;;;26.40;99.90;;;;;;4902375;29;20056;-66
2021/06/28 12:22:20;;;;;;;6.00;5.47;;;26.30;99.90;;;;;;4904546;29;20060;-67
2021/06/28 12:24:48;;;;;;;7.60;6.90;;;26.20;99.90;;;;;;4892975;29;20131;-66
2021/06/28 12:27:17;;;;;;;6.43;5.82;;;26.20;99.90;;;;;;4907130;29;20052;-67
2021/06/28 12:29:45;;;;;;;6.87;6.20;;;26.20;99.90;;;;;;4904589;29;20112;-68
2021/06/28 12:32:26;;;;;;;6.88;6.28;;;26.20;99.90;;;;;;4908189;29;20301;-68
2021/06/28 12:34:58;;;;;;;5.10;4.65;;;26.30;99.90;;;;;;4904929;29;20532;-68
2021/06/28 12:37:37;;;;;;;5.93;5.40;;;26.40;99.90;;;;;;4905783;29;20036;-68
2021/06/28 12:40:28;;;;;;;6.47;5.88;;;26.50;99.90;;;;;;4895025;29;20056;-67
2021/06/28 12:43:03;;;;;;;6.75;5.38;;;26.60;99.90;;;;;;4898787;29;20060;-67
2021/06/28 12:45:32;;;;;;;7.43;5.78;;;26.80;99.90;;;;;;4906555;29;20076;-66
2021/06/28 12:48:01;;;;;;;5.80;5.30;;;26.90;99.90;;;;;;4901426;29;20457;-67
2021/06/28 12:50:30;;;;;;;6.07;5.57;;;27.00;99.90;;;;;;4907708;29;20353;-67
2021/06/28 12:52:56;;;;;;;7.00;6.20;;;26.90;99.90;;;;;;4900338;29;20045;-67